createdAt,value
2022-09-10T00:01:54.505Z,14.65
2022-09-10T00:04:21.024Z,14.68
2022-09-10T00:06:47.645Z,14.67
2022-09-10T00:09:14.307Z,14.65
2022-09-10T00:11:41.830Z,14.64
2022-09-10T00:14:15.244Z,14.65
2022-09-10T00:16:42.196Z,14.60
2022-09-10T00:19:08.752Z,14.63
2022-09-10T00:21:35.788Z,14.64
2022-09-10T00:24:03.590Z,14.70
2022-09-10T00:26:35.394Z,14.75
2022-09-10T00:29:02.314Z,14.77
2022-09-10T00:31:30.598Z,14.87
2022-09-10T00:33:58.605Z,14.92
2022-09-10T00:36:33.793Z,14.92
2022-09-10T00:39:03.590Z,14.94
2022-09-10T00:41:30.822Z,15.00
2022-09-10T00:44:02.689Z,15.06
2022-09-10T00:46:48.445Z,15.04
2022-09-10T00:49:37.246Z,15.04
2022-09-10T00:52:04.642Z,14.89
2022-09-10T00:54:33.709Z,14.97
2022-09-10T00:57:06.304Z,14.94
2022-09-10T00:59:34.024Z,14.99
2022-09-10T01:02:01.260Z,14.97
2022-09-10T01:04:28.919Z,14.95
2022-09-10T01:06:56.401Z,14.95
2022-09-10T01:09:24.277Z,14.90
2022-09-10T01:11:57.892Z,14.92
2022-09-10T01:14:49.834Z,14.88
2022-09-10T01:17:31.296Z,14.92
2022-09-10T01:20:24.088Z,14.99
2022-09-10T01:23:44.966Z,14.95
2022-09-10T01:26:49.156Z,15.04
2022-09-10T01:29:32.636Z,15.01
2022-09-10T01:32:20.725Z,14.98
2022-09-10T01:34:56.247Z,14.92
2022-09-10T01:37:28.828Z,14.86
2022-09-10T01:39:57.029Z,14.78
2022-09-10T01:42:27.865Z,14.80
2022-09-10T01:44:57.879Z,14.78
2022-09-10T01:48:02.156Z,14.67
2022-09-10T01:50:41.053Z,14.53
2022-09-10T01:53:33.454Z,14.47
2022-09-10T01:56:19.483Z,14.42
2022-09-10T01:58:47.006Z,14.29
2022-09-10T02:01:24.858Z,14.28
2022-09-10T02:03:56.946Z,14.27
2022-09-10T02:06:29.708Z,14.17
2022-09-10T02:08:58.721Z,14.12
2022-09-10T02:11:25.604Z,14.09
2022-09-10T02:13:52.392Z,14.02
2022-09-10T02:16:33.269Z,14.02
2022-09-10T02:19:02.127Z,14.01
2022-09-10T02:21:28.720Z,13.98
2022-09-10T02:23:59.426Z,13.98
2022-09-10T02:26:28.437Z,13.98
2022-09-10T02:28:55.211Z,13.96
2022-09-10T02:31:22.673Z,13.97
2022-09-10T02:33:49.199Z,14.00
2022-09-10T02:36:15.674Z,14.08
2022-09-10T02:38:42.207Z,14.13
2022-09-10T02:41:09.561Z,14.23
2022-09-10T02:43:38.397Z,14.25
2022-09-10T02:46:07.468Z,14.28
2022-09-10T02:48:34.038Z,14.28
2022-09-10T02:51:00.843Z,14.36
2022-09-10T02:53:27.486Z,14.41
2022-09-10T02:55:54.507Z,14.54
2022-09-10T02:58:21.089Z,14.68
2022-09-10T03:00:47.567Z,14.58
2022-09-10T03:03:14.474Z,14.52
2022-09-10T03:05:41.788Z,14.63
2022-09-10T03:08:09.439Z,14.70
2022-09-10T03:10:36.791Z,14.75
2022-09-10T03:13:03.542Z,14.83
2022-09-10T03:15:30.045Z,14.90
2022-09-10T03:17:56.462Z,14.92
2022-09-10T03:20:23.088Z,14.97
2022-09-10T03:22:51.580Z,15.03
2022-09-10T03:25:22.800Z,15.06
2022-09-10T03:27:49.383Z,15.08
2022-09-10T03:30:15.917Z,14.99
2022-09-10T03:32:43.245Z,14.98
2022-09-10T03:35:10.382Z,15.03
2022-09-10T03:37:37.020Z,14.98
2022-09-10T03:40:04.775Z,15.01
2022-09-10T03:42:31.626Z,15.12
2022-09-10T03:44:58.216Z,15.14
2022-09-10T03:47:25.195Z,15.12
2022-09-10T03:49:51.853Z,15.14
2022-09-10T03:52:18.759Z,15.08
2022-09-10T03:54:45.740Z,15.06
2022-09-10T03:57:12.388Z,14.97
2022-09-10T03:59:41.276Z,14.86
2022-09-10T04:02:09.521Z,14.81
2022-09-10T04:04:37.475Z,14.71
2022-09-10T04:07:04.791Z,14.66
2022-09-10T04:09:32.689Z,14.58
2022-09-10T04:12:00.098Z,14.67
2022-09-10T04:14:27.235Z,14.71
2022-09-10T04:16:54.516Z,14.66
2022-09-10T04:19:21.221Z,14.57
2022-09-10T04:21:48.548Z,14.55
2022-09-10T04:24:15.225Z,14.50
2022-09-10T04:26:41.822Z,14.52
2022-09-10T04:29:08.785Z,14.47
2022-09-10T04:31:35.495Z,14.46
2022-09-10T04:34:02.242Z,14.52
2022-09-10T04:36:29.587Z,14.47
2022-09-10T04:38:56.579Z,14.51
2022-09-10T04:41:23.371Z,14.53
2022-09-10T04:43:50.182Z,14.57
2022-09-10T04:46:17.756Z,14.61
2022-09-10T04:48:44.518Z,14.60
2022-09-10T04:51:17.439Z,14.64
2022-09-10T04:53:45.846Z,14.64
2022-09-10T04:56:12.805Z,14.67
2022-09-10T04:58:40.195Z,14.68
2022-09-10T05:01:07.656Z,14.69
2022-09-10T05:03:34.558Z,14.78
2022-09-10T05:06:01.560Z,14.79
2022-09-10T05:08:28.216Z,14.83
2022-09-10T05:10:55.196Z,14.91
2022-09-10T05:13:22.084Z,14.85
2022-09-10T05:15:49.292Z,14.88
2022-09-10T05:18:16.786Z,14.89
2022-09-10T05:20:44.864Z,14.92
2022-09-10T05:23:11.559Z,15.01
2022-09-10T05:25:38.237Z,15.03
2022-09-10T05:28:06.040Z,14.99
2022-09-10T05:30:32.969Z,15.05
2022-09-10T05:33:02.946Z,15.10
2022-09-10T05:35:30.431Z,15.05
2022-09-10T05:37:57.726Z,15.11
2022-09-10T05:40:25.547Z,15.15
2022-09-10T05:42:52.977Z,15.24
2022-09-10T05:45:20.493Z,15.29
2022-09-10T05:47:47.587Z,15.33
2022-09-10T05:50:14.700Z,15.37
2022-09-10T05:52:41.466Z,15.43
2022-09-10T05:55:08.432Z,15.60
2022-09-10T05:57:35.570Z,15.63
2022-09-10T06:00:08.611Z,15.71
2022-09-10T06:02:35.902Z,15.76
2022-09-10T06:05:02.667Z,15.87
2022-09-10T06:07:30.516Z,15.92
2022-09-10T06:10:03.089Z,16.01
2022-09-10T06:12:29.748Z,16.08
2022-09-10T06:14:56.536Z,16.11
2022-09-10T06:17:23.128Z,16.13
2022-09-10T06:19:51.972Z,16.14
2022-09-10T06:22:18.551Z,16.25
2022-09-10T06:24:47.991Z,16.59
2022-09-10T06:27:14.995Z,16.76
2022-09-10T06:29:41.537Z,16.59
2022-09-10T06:32:08.141Z,16.43
2022-09-10T06:34:35.996Z,16.51
2022-09-10T06:37:04.375Z,16.86
2022-09-10T06:39:31.239Z,17.18
2022-09-10T06:41:57.783Z,17.32
2022-09-10T06:44:24.326Z,17.44
2022-09-10T06:49:39.889Z,18.09
2022-09-10T06:52:06.363Z,18.02
2022-09-10T06:54:32.967Z,18.32
2022-09-10T06:57:01.444Z,18.64
2022-09-10T06:59:28.084Z,18.71
2022-09-10T07:01:55.371Z,18.51
2022-09-10T07:04:21.953Z,18.48
2022-09-10T07:06:48.636Z,18.67
2022-09-10T07:09:15.733Z,19.20
2022-09-10T07:11:42.452Z,19.29
2022-09-10T07:14:13.060Z,19.46
2022-09-10T07:16:44.565Z,19.58
2022-09-10T07:19:15.103Z,19.21
2022-09-10T07:21:41.827Z,18.85
2022-09-10T07:24:11.117Z,18.83
2022-09-10T07:26:37.877Z,18.94
2022-09-10T07:29:04.910Z,19.35
2022-09-10T07:31:35.990Z,19.71
2022-09-10T07:34:03.258Z,19.85
2022-09-10T07:36:30.860Z,20.48
2022-09-10T07:38:59.085Z,21.49
2022-09-10T07:41:29.594Z,22.07
2022-09-10T07:43:56.497Z,22.80
2022-09-10T07:46:25.701Z,23.06
2022-09-10T07:49:00.423Z,22.86
2022-09-10T07:51:29.578Z,22.27
2022-09-10T07:53:58.328Z,20.78
2022-09-10T07:56:26.091Z,20.34
2022-09-10T07:58:54.018Z,20.35
2022-09-10T08:01:20.984Z,20.24
2022-09-10T08:03:47.571Z,20.33
2022-09-10T08:06:14.648Z,20.53
2022-09-10T08:08:42.760Z,20.78
2022-09-10T08:11:12.802Z,20.61
2022-09-10T08:13:45.099Z,20.40
2022-09-10T08:16:14.846Z,20.03
2022-09-10T08:18:43.185Z,20.24
2022-09-10T08:21:10.891Z,19.89
2022-09-10T08:23:39.816Z,19.88
2022-09-10T08:26:08.241Z,19.86
2022-09-10T08:28:35.655Z,19.88
2022-09-10T08:31:07.741Z,20.53
2022-09-10T08:33:36.310Z,21.34
2022-09-10T08:36:04.834Z,21.90
2022-09-10T08:38:42.276Z,21.81
2022-09-10T08:41:13.892Z,21.19
2022-09-10T08:43:55.941Z,21.03
2022-09-10T08:46:25.790Z,20.98
2022-09-10T08:49:11.756Z,20.41
2022-09-10T08:51:46.769Z,20.38
2022-09-10T08:54:38.248Z,20.50
2022-09-10T08:57:11.890Z,20.69
2022-09-10T08:59:45.511Z,20.65
2022-09-10T09:02:47.377Z,20.55
2022-09-10T09:05:19.493Z,20.16
2022-09-10T09:07:48.502Z,20.02
2022-09-10T09:10:54.326Z,19.93
2022-09-10T09:13:33.056Z,19.83
2022-09-10T09:16:11.672Z,19.85
2022-09-10T09:19:02.305Z,19.74
2022-09-10T09:22:07.267Z,19.19
2022-09-10T09:24:57.949Z,19.20
2022-09-10T09:27:29.858Z,19.41
2022-09-10T09:29:59.462Z,19.62
2022-09-10T09:32:28.742Z,19.91
2022-09-10T09:35:05.487Z,19.96
2022-09-10T09:37:34.666Z,20.24
2022-09-10T09:40:15.216Z,20.39
2022-09-10T09:42:50.059Z,20.61
2022-09-10T09:45:23.504Z,20.59
2022-09-10T09:47:50.983Z,20.53
2022-09-10T09:50:20.728Z,20.34
2022-09-10T09:52:47.922Z,20.02
2022-09-10T09:55:43.724Z,20.31
2022-09-10T09:58:22.275Z,20.40
2022-09-10T10:00:53.153Z,20.71
2022-09-10T10:03:25.661Z,20.92
2022-09-10T10:06:02.435Z,21.08
2022-09-10T10:08:34.181Z,21.17
2022-09-10T10:11:01.628Z,21.23
2022-09-10T10:13:40.079Z,21.46
2022-09-10T10:16:38.068Z,21.34
2022-09-10T10:19:34.315Z,21.36
2022-09-10T10:22:19.567Z,21.54
2022-09-10T10:24:49.262Z,21.61
2022-09-10T10:27:43.115Z,22.59
2022-09-10T10:30:13.099Z,23.46
2022-09-10T10:32:44.924Z,24.13
2022-09-10T10:35:20.362Z,24.67
2022-09-10T10:38:17.447Z,25.28
2022-09-10T10:41:17.121Z,24.67
2022-09-10T10:44:13.392Z,24.28
2022-09-10T10:46:54.108Z,24.79
2022-09-10T10:49:26.995Z,24.22
2022-09-10T10:52:04.178Z,23.05
2022-09-10T10:55:02.264Z,22.21
2022-09-10T10:58:14.341Z,21.86
2022-09-10T11:00:57.815Z,21.16
2022-09-10T11:03:57.419Z,20.25
2022-09-10T11:06:29.296Z,19.44
2022-09-10T11:08:59.582Z,18.63
2022-09-10T11:11:55.363Z,18.16
2022-09-10T11:14:36.186Z,17.64
2022-09-10T11:17:10.416Z,17.77
2022-09-10T11:19:53.333Z,17.86
2022-09-10T11:22:45.453Z,18.04
2022-09-10T11:25:22.862Z,18.01
2022-09-10T11:27:55.422Z,18.02
2022-09-10T11:30:22.436Z,18.10
2022-09-10T11:33:11.426Z,18.27
2022-09-10T11:35:44.549Z,18.44
2022-09-10T11:38:29.226Z,18.94
2022-09-10T11:41:03.940Z,19.30
2022-09-10T11:43:50.380Z,19.64
2022-09-10T11:46:23.660Z,19.80
2022-09-10T11:48:55.410Z,20.32
2022-09-10T11:51:28.133Z,20.93
2022-09-10T11:53:55.150Z,21.64
2022-09-10T11:56:35.399Z,22.11
2022-09-10T11:59:17.160Z,22.87
2022-09-10T12:02:07.947Z,23.11
2022-09-10T12:04:57.883Z,23.15
2022-09-10T12:07:33.669Z,22.50
2022-09-10T12:10:18.632Z,21.78
2022-09-10T12:12:49.211Z,21.46
2022-09-10T12:15:34.232Z,21.88
2022-09-10T12:18:14.847Z,22.08
2022-09-10T12:21:08.821Z,22.26
2022-09-10T12:23:40.012Z,22.13
2022-09-10T12:26:11.594Z,22.46
2022-09-10T12:28:53.193Z,22.56
2022-09-10T12:31:21.732Z,22.39
2022-09-10T12:33:48.376Z,22.48
2022-09-10T12:36:34.931Z,23.29
2022-09-10T12:39:28.504Z,23.13
2022-09-10T12:42:01.783Z,23.49
2022-09-10T12:44:34.456Z,23.38
2022-09-10T12:47:16.258Z,22.69
2022-09-10T12:50:04.656Z,22.29
2022-09-10T12:52:51.052Z,22.22
2022-09-10T12:55:36.249Z,21.98
2022-09-10T12:58:03.321Z,21.64
2022-09-10T13:00:50.717Z,21.53
2022-09-10T13:03:20.165Z,21.70
2022-09-10T13:05:47.701Z,21.88
2022-09-10T13:08:47.848Z,21.97
2022-09-10T13:11:22.747Z,22.09
2022-09-10T13:13:50.145Z,21.86
2022-09-10T13:16:41.514Z,21.67
2022-09-10T13:19:14.095Z,21.64
2022-09-10T13:21:40.772Z,22.11
2022-09-10T13:24:36.423Z,22.50
2022-09-10T13:27:17.962Z,22.44
2022-09-10T13:29:54.859Z,22.17
2022-09-10T13:32:34.629Z,22.02
2022-09-10T13:35:17.057Z,21.45
2022-09-10T13:38:02.825Z,21.32
2022-09-10T13:41:06.887Z,21.24
2022-09-10T13:43:48.822Z,21.03
2022-09-10T13:46:31.216Z,20.77
2022-09-10T13:49:10.035Z,20.81
2022-09-10T13:51:47.787Z,20.47
2022-09-10T13:54:30.171Z,20.46
2022-09-10T13:57:03.343Z,20.41
2022-09-10T13:59:33.415Z,20.47
2022-09-10T14:01:59.975Z,20.60
2022-09-10T14:04:28.226Z,20.60
2022-09-10T14:07:03.417Z,20.68
2022-09-10T14:09:32.597Z,20.58
2022-09-10T14:12:03.674Z,20.49
2022-09-10T14:14:35.348Z,20.40
2022-09-10T14:17:10.406Z,20.02
2022-09-10T14:19:52.615Z,19.93
2022-09-10T14:22:26.100Z,19.82
2022-09-10T14:24:55.583Z,19.74
2022-09-10T14:27:32.725Z,19.63
2022-09-10T14:30:18.490Z,19.87
2022-09-10T14:32:46.333Z,19.92
2022-09-10T14:35:39.269Z,19.94
2022-09-10T14:38:31.648Z,19.90
2022-09-10T14:41:04.329Z,20.04
2022-09-10T14:43:39.085Z,19.84
2022-09-10T14:46:11.740Z,19.85
2022-09-10T14:48:39.500Z,19.63
2022-09-10T14:51:12.835Z,19.52
2022-09-10T14:53:41.445Z,19.43
2022-09-10T14:56:44.328Z,19.39
2022-09-10T14:59:31.210Z,19.28
2022-09-10T15:02:00.873Z,19.15
2022-09-10T15:04:30.315Z,19.03
2022-09-10T15:07:00.661Z,18.90
2022-09-10T15:09:28.649Z,18.83
2022-09-10T15:12:26.175Z,18.64
2022-09-10T15:14:52.629Z,18.60
2022-09-10T15:17:19.591Z,18.60
2022-09-10T15:19:50.124Z,18.57
2022-09-10T15:22:23.564Z,18.56
2022-09-10T15:25:09.008Z,18.39
2022-09-10T15:27:37.105Z,18.40
2022-09-10T15:30:05.422Z,18.44
2022-09-10T15:32:31.989Z,18.48
2022-09-10T15:34:59.119Z,18.46
2022-09-10T15:37:25.815Z,18.47
2022-09-10T15:39:53.976Z,18.38
2022-09-10T15:42:21.213Z,18.29
2022-09-10T15:44:47.809Z,18.33
2022-09-10T15:47:15.023Z,18.48
2022-09-10T15:49:41.707Z,18.41
2022-09-10T15:52:08.476Z,18.42
2022-09-10T15:54:35.146Z,18.46
2022-09-10T15:57:01.695Z,18.39
2022-09-10T15:59:28.603Z,18.33
2022-09-10T16:01:55.258Z,18.47
2022-09-10T16:04:21.970Z,18.45
2022-09-10T16:06:48.503Z,18.28
2022-09-10T16:09:15.235Z,18.24
2022-09-10T16:11:42.874Z,18.25
2022-09-10T16:14:12.787Z,18.33
2022-09-10T16:16:41.091Z,18.33
2022-09-10T16:19:09.292Z,18.25
2022-09-10T16:21:37.549Z,18.25
2022-09-10T16:24:06.153Z,18.12
2022-09-10T16:26:35.922Z,18.16
2022-09-10T16:29:06.518Z,18.24
2022-09-10T16:31:39.149Z,18.29
2022-09-10T16:34:08.919Z,18.19
2022-09-10T16:36:37.232Z,18.09
2022-09-10T16:39:07.396Z,18.13
2022-09-10T16:41:34.060Z,18.03
2022-09-10T16:44:00.950Z,18.11
2022-09-10T16:46:28.265Z,18.04
2022-09-10T16:48:55.969Z,17.88
2022-09-10T16:51:24.671Z,17.90
2022-09-10T16:54:02.509Z,17.83
2022-09-10T16:56:38.644Z,17.69
2022-09-10T16:59:09.772Z,17.78
2022-09-10T17:01:37.623Z,17.63
2022-09-10T17:04:07.624Z,17.68
2022-09-10T17:06:35.220Z,17.66
2022-09-10T17:09:02.635Z,17.58
2022-09-10T17:11:32.323Z,17.49
2022-09-10T17:14:01.827Z,17.50
2022-09-10T17:16:33.691Z,17.47
2022-09-10T17:19:03.654Z,17.48
2022-09-10T17:21:32.287Z,17.41
2022-09-10T17:23:59.564Z,17.41
2022-09-10T17:26:27.221Z,17.37
2022-09-10T17:28:56.063Z,17.30
2022-09-10T17:31:23.555Z,17.36
2022-09-10T17:33:50.711Z,17.27
2022-09-10T17:36:17.855Z,17.25
2022-09-10T17:38:45.059Z,17.18
2022-09-10T17:41:14.600Z,17.00
2022-09-10T17:43:43.514Z,17.03
2022-09-10T17:46:12.458Z,17.07
2022-09-10T17:48:39.283Z,17.04
2022-09-10T17:51:07.280Z,17.07
2022-09-10T17:53:34.826Z,16.97
2022-09-10T17:56:06.099Z,16.97
2022-09-10T17:58:33.409Z,17.00
2022-09-10T18:01:03.257Z,16.97
2022-09-10T18:03:30.277Z,16.95
2022-09-10T18:05:57.296Z,16.97
2022-09-10T18:08:23.966Z,16.98
2022-09-10T18:10:50.885Z,16.89
2022-09-10T18:13:19.533Z,16.90
2022-09-10T18:15:49.404Z,16.91
2022-09-10T18:18:16.009Z,16.98
2022-09-10T18:20:43.026Z,16.95
2022-09-10T18:23:09.800Z,16.88
2022-09-10T18:25:36.473Z,16.93
2022-09-10T18:28:03.193Z,16.85
2022-09-10T18:30:29.952Z,16.75
2022-09-10T18:32:56.406Z,16.72
2022-09-10T18:35:23.129Z,16.78
2022-09-10T18:37:52.517Z,16.83
2022-09-10T18:40:19.729Z,16.83
2022-09-10T18:42:47.915Z,16.84
2022-09-10T18:45:14.983Z,16.77
2022-09-10T18:47:45.386Z,16.80
2022-09-10T18:50:13.409Z,16.77
2022-09-10T18:52:40.230Z,16.73
2022-09-10T18:55:07.301Z,16.72
2022-09-10T18:57:33.918Z,16.76
2022-09-10T19:00:00.427Z,16.72
2022-09-10T19:02:27.194Z,16.78
2022-09-10T19:05:10.593Z,16.76
2022-09-10T19:07:38.386Z,16.73
2022-09-10T19:10:07.181Z,16.69
2022-09-10T19:12:33.939Z,16.67
2022-09-10T19:15:00.575Z,16.61
2022-09-10T19:17:27.117Z,16.69
2022-09-10T19:19:53.803Z,16.66
2022-09-10T19:22:20.541Z,16.60
2022-09-10T19:24:55.719Z,16.61
2022-09-10T19:27:23.620Z,16.63
2022-09-10T19:29:50.543Z,16.62
2022-09-10T19:32:19.704Z,16.61
2022-09-10T19:34:49.689Z,16.57
2022-09-10T19:37:17.265Z,16.53
2022-09-10T19:39:44.793Z,16.54
2022-09-10T19:42:12.746Z,16.55
2022-09-10T19:44:39.415Z,16.50
2022-09-10T19:47:06.110Z,16.48
2022-09-10T19:49:34.187Z,16.41
2022-09-10T19:52:00.923Z,16.38
2022-09-10T19:54:28.607Z,16.34
2022-09-10T19:56:56.591Z,16.29
2022-09-10T19:59:23.292Z,16.23
2022-09-10T20:01:49.979Z,16.23
2022-09-10T20:04:16.911Z,16.24
2022-09-10T20:06:45.863Z,16.25
2022-09-10T20:09:12.479Z,16.26
2022-09-10T20:11:39.071Z,16.27
2022-09-10T20:14:08.608Z,16.33
2022-09-10T20:16:40.191Z,16.26
2022-09-10T20:19:07.199Z,16.21
2022-09-10T20:21:35.120Z,16.17
2022-09-10T20:24:01.821Z,16.15
2022-09-10T20:26:33.455Z,16.13
2022-09-10T20:29:03.994Z,16.11
2022-09-10T20:31:32.719Z,16.14
2022-09-10T20:34:03.473Z,16.06
2022-09-10T20:36:31.420Z,16.04
2022-09-10T20:38:58.553Z,16.01
2022-09-10T20:41:30.097Z,15.97
2022-09-10T20:43:58.808Z,15.96
2022-09-10T20:46:27.289Z,15.94
2022-09-10T20:48:54.261Z,15.86
2022-09-10T20:51:21.368Z,15.72
2022-09-10T20:53:48.550Z,15.65
2022-09-10T20:56:18.492Z,15.55
2022-09-10T20:58:46.586Z,15.48
2022-09-10T21:01:16.872Z,15.46
2022-09-10T21:03:43.587Z,15.39
2022-09-10T21:06:11.822Z,15.29
2022-09-10T21:08:39.838Z,15.22
2022-09-10T21:11:12.412Z,15.14
2022-09-10T21:13:47.604Z,15.11
2022-09-10T21:16:17.220Z,15.10
2022-09-10T21:18:53.584Z,15.02
2022-09-10T21:21:23.644Z,14.94
2022-09-10T21:23:52.016Z,14.80
2022-09-10T21:26:21.035Z,14.75
2022-09-10T21:28:48.587Z,14.66
2022-09-10T21:31:15.260Z,14.68
2022-09-10T21:33:43.468Z,14.71
2022-09-10T21:36:18.725Z,14.72
2022-09-10T21:38:56.412Z,14.74
2022-09-10T21:41:31.219Z,14.77
2022-09-10T21:43:58.686Z,14.71
2022-09-10T21:46:25.513Z,14.68
2022-09-10T21:48:52.360Z,14.64
2022-09-10T21:51:20.361Z,14.67
2022-09-10T21:53:47.764Z,14.66
2022-09-10T21:56:16.739Z,14.64
2022-09-10T21:58:45.650Z,14.62
2022-09-10T22:01:14.874Z,14.64
2022-09-10T22:03:41.852Z,14.62
2022-09-10T22:06:15.706Z,14.62
2022-09-10T22:08:44.999Z,14.55
2022-09-10T22:11:17.122Z,14.60
2022-09-10T22:13:45.424Z,14.59
2022-09-10T22:16:12.775Z,14.62
2022-09-10T22:18:40.023Z,14.52
2022-09-10T22:21:06.878Z,14.49
2022-09-10T22:23:38.124Z,14.43
2022-09-10T22:26:13.473Z,14.41
2022-09-10T22:28:40.576Z,14.41
2022-09-10T22:31:19.182Z,14.38
2022-09-10T22:33:50.908Z,14.40
2022-09-10T22:36:18.867Z,14.43
2022-09-10T22:38:50.513Z,14.45
2022-09-10T22:41:17.371Z,14.44
2022-09-10T22:43:43.956Z,14.46
2022-09-10T22:46:11.045Z,14.45
2022-09-10T22:48:40.095Z,14.39
2022-09-10T22:51:08.629Z,14.44
2022-09-10T22:53:35.467Z,14.38
2022-09-10T22:56:02.513Z,14.42
2022-09-10T22:58:29.251Z,14.36
2022-09-10T23:00:56.365Z,14.36
2022-09-10T23:03:23.219Z,14.30
2022-09-10T23:05:49.848Z,14.30
2022-09-10T23:08:17.122Z,14.28
2022-09-10T23:10:43.815Z,14.27
2022-09-10T23:13:10.613Z,14.28
2022-09-10T23:15:37.335Z,14.26
2022-09-10T23:18:03.849Z,14.28
2022-09-10T23:20:30.348Z,14.29
2022-09-10T23:22:56.897Z,14.30
2022-09-10T23:25:23.466Z,14.28
2022-09-10T23:27:51.290Z,14.25
2022-09-10T23:30:18.176Z,14.26
2022-09-10T23:32:45.420Z,14.21
2022-09-10T23:35:12.120Z,14.18
2022-09-10T23:37:38.716Z,14.10
2022-09-10T23:40:06.751Z,14.09
2022-09-10T23:42:35.077Z,14.04
2022-09-10T23:45:01.766Z,13.97
2022-09-10T23:47:28.351Z,13.97
2022-09-10T23:49:54.991Z,13.95
2022-09-10T23:52:21.872Z,13.95
2022-09-10T23:54:49.092Z,13.81
2022-09-10T23:57:15.749Z,13.65
2022-09-10T23:59:42.431Z,13.55
